Houston, Texas
Traffic Map
Current Weather Conditions
Houston, Texas
Overcast
Overcast
80°
Feels Like: 84°
Wind Chill: 80° Ceiling: 2600
Heat Index: 84° Visibility: 10mi
Dew Point: 72° Wind: 18mph
Humidity: 76% Direction: 160° (SSE)
Pressure: 29.64in Gusts: 26mph
Raw Report DataKIAH 292253Z 16016G23KT 10SM BKN026 OVC040 27/22 A2964 RMK AO2 SLP037 T02670222
Traffic Incident Summary
Active as of:
Severity:
Category:
InformationThere was an issue retrieving the traffic information for this location. Please try a different location or try again shortly.
Advertisements
Track Severe Weather on mobile